MSC Alexa — 3FPP6 — position and weather

sailwx.info

Track history (hours):
 
Tides and Currents Weather Stations Pressure Air Temp Water Temp Dewpoint Dewpoint Depression Visibility Wind Speed Wind Dir Waves Ship Positions

MSC Alexa

Last reported at 2017-Oct-21 17:27 UTC. Time now 2017-Oct-23 00:54 UTC.
Position N 01°14' E 103°57'.

Length 243 m; draft 8.3 m.

Type: Cargo ship. MMSI: 356904000.

Date/timePositionNaut miles runAvg speedWind from/ knotsBaromVisibWave heightAir tempDewpointWater temp
2017-Oct-21 17:27N 01°14' E 103°57'613.9
2017-Oct-21 17:01N 01°12' E 103°51'4 7.3
2017-Oct-21 16:30N 01°13' E 103°48'3 6.5
2017-Oct-21 16:01N 01°16' E 103°46'0 0.2
2017-Oct-21 15:14N 01°16' E 103°46'0 0.0
2017-Oct-21 14:59N 01°16' E 103°46'0 0.0
2017-Oct-21 13:58N 01°16' E 103°46'0 0.0
2017-Oct-21 13:25N 01°16' E 103°46'0 0.0
2017-Oct-21 12:58N 01°16' E 103°46'0 0.0
2017-Oct-21 12:28N 01°16' E 103°46'0 0.0
2017-Oct-21 11:54N 01°16' E 103°46'0 0.0
2017-Oct-21 11:30N 01°16' E 103°46'0 0.0
2017-Oct-21 11:00N 01°16' E 103°46'0 0.0
2017-Oct-21 10:30N 01°16' E 103°46'0 0.0
2017-Oct-21 10:00N 01°16' E 103°46'0 0.0
2017-Oct-21 09:29N 01°16' E 103°46'0 0.0
2017-Oct-21 08:59N 01°16' E 103°46'0 0.0
2017-Oct-21 08:29N 01°16' E 103°46'0 0.0
2017-Oct-21 07:59N 01°16' E 103°46'0 0.0
2017-Oct-21 07:29N 01°16' E 103°46'0 0.0
2017-Oct-21 06:58N 01°16' E 103°46'0 0.0
2017-Oct-21 06:25N 01°16' E 103°46'0 0.0
2017-Oct-21 05:58N 01°16' E 103°46'0 0.0
2017-Oct-21 05:28N 01°16' E 103°46'0 0.0
2017-Oct-21 04:52N 01°16' E 103°46'0 1.0
2017-Oct-21 04:30N 01°16' E 103°46'1 1.3
2017-Oct-21 03:59N 01°15' E 103°46'4 7.7
2017-Oct-21 03:30N 01°14' E 103°43'611.3
2017-Oct-21 03:01N 01°12' E 103°37'3 5.8
2017-Oct-21 02:30N 01°11' E 103°34'3 3.4
2017-Oct-21 01:44N 01°11' E 103°32'0 0.3
2017-Oct-21 01:30N 01°11' E 103°32'0 0.1
2017-Oct-21 00:58N 01°11' E 103°32'0 0.3
2017-Oct-21 00:30N 01°10' E 103°32'0 0.6
2017-Oct-20 23:59N 01°10' E 103°32'2 4.7
2017-Oct-20 23:27N 01°12' E 103°30'1 2.9
2017-Oct-20 22:59N 01°12' E 103°28'0 1.0
2017-Oct-20 22:30N 01°12' E 103°29'0 0.9
2017-Oct-20 21:59N 01°12' E 103°29'0 0.9
2017-Oct-20 21:30N 01°11' E 103°30'0 0.8
2017-Oct-20 20:59N 01°11' E 103°30'0 0.7
2017-Oct-20 20:30N 01°11' E 103°30'3 4.7
2017-Oct-20 19:57N 01°13' E 103°32'510.0
2017-Oct-20 19:30N 01°18' E 103°33'3 5.3
2017-Oct-20 19:01N 01°20' E 103°33'0 0.0
2017-Oct-20 18:19N 01°20' E 103°33'0 0.0
2017-Oct-20 17:55N 01°20' E 103°33'0 0.0
2017-Oct-20 16:52N 01°20' E 103°33'0 0.0
2017-Oct-20 14:57N 01°20' E 103°33'0 0.0
2017-Oct-20 13:59N 01°20' E 103°33'0 0.0
2017-Oct-20 13:26N 01°20' E 103°33'0 0.0
2017-Oct-20 12:47N 01°20' E 103°33'0 0.0
2017-Oct-20 12:29N 01°20' E 103°33'0 0.0
2017-Oct-20 11:59N 01°20' E 103°33'0 0.0
2017-Oct-20 11:16N 01°20' E 103°33'0 0.0
2017-Oct-20 10:58N 01°20' E 103°33'0 0.0
2017-Oct-20 10:28N 01°20' E 103°33'0 0.0
2017-Oct-20 09:58N 01°20' E 103°33'0 0.0
2017-Oct-20 09:27N 01°20' E 103°33'0 0.0
2017-Oct-20 08:54N 01°20' E 103°33'0 0.6
2017-Oct-20 08:30N 01°20' E 103°33'4 8.5
2017-Oct-20 08:00N 01°16' E 103°33'4 7.8
2017-Oct-20 07:30N 01°12' E 103°34'510.1
2017-Oct-20 07:01N 01°11' E 103°39'5 9.8
2017-Oct-20 06:30N 01°09' E 103°44'5 9.2
2017-Oct-20 05:59N 01°10' E 103°48'5 9.8
2017-Oct-20 05:30N 01°12' E 103°52'510.4
2017-Oct-20 05:00N 01°14' E 103°57'  
2017-Oct-14 16:37N 01°15' E 104°05'215.8
2017-Oct-14 16:27N 01°15' E 104°02'716.1
2017-Oct-14 16:00N 01°13' E 103°55'713.5
2017-Oct-14 15:31N 01°12' E 103°49'5 8.6
2017-Oct-14 14:57N 01°16' E 103°46'0 0.1
2017-Oct-14 14:30N 01°16' E 103°46'0 0.0
2017-Oct-14 13:47N 01°16' E 103°46'0 0.0
2017-Oct-14 13:29N 01°16' E 103°46'0 0.0
2017-Oct-14 12:44N 01°16' E 103°46'0 0.0
2017-Oct-14 12:26N 01°16' E 103°46'0 0.0
2017-Oct-14 11:59N 01°16' E 103°46'0 0.0
2017-Oct-14 11:28N 01°16' E 103°46'0 0.0
2017-Oct-14 10:58N 01°16' E 103°46'3 5.5
2017-Oct-14 10:27N 01°14' E 103°47'3 4.3
2017-Oct-14 09:46N 01°16' E 103°46'519.4
2017-Oct-14 09:29N 01°12' E 103°50'2 3.0
2017-Oct-14 08:58N 01°12' E 103°51'1 2.7
2017-Oct-14 08:30N 01°13' E 103°53'1 1.8
2017-Oct-14 07:58N 01°13' E 103°53'817.1
2017-Oct-14 07:30N 01°16' E 103°46'0 0.0
2017-Oct-14 06:59N 01°16' E 103°46'0 0.0
2017-Oct-14 06:29N 01°16' E 103°46'0 0.0
2017-Oct-14 05:59N 01°16' E 103°46'0 0.0
2017-Oct-14 05:29N 01°16' E 103°46'0 0.0
2017-Oct-14 04:59N 01°16' E 103°46'0 0.0
2017-Oct-14 04:28N 01°16' E 103°46'0 0.0
2017-Oct-14 03:58N 01°16' E 103°46'0 0.0
2017-Oct-14 03:28N 01°16' E 103°46'0 0.0
2017-Oct-14 02:58N 01°16' E 103°46'0 0.0
2017-Oct-14 02:31N 01°16' E 103°46'0 0.0
2017-Oct-14 02:00N 01°16' E 103°46'0 0.0
2017-Oct-14 01:30N 01°16' E 103°46'0 0.0
2017-Oct-14 00:57N 01°16' E 103°46'0 0.0
2017-Oct-14 00:24N 01°16' E 103°46'0 0.3
2017-Oct-14 00:00N 01°16' E 103°46'3 5.6
2017-Oct-13 23:31N 01°14' E 103°47'612.1
2017-Oct-13 23:00N 01°13' E 103°53'2 4.0
2017-Oct-13 22:31N 01°14' E 103°55'1 1.6
2017-Oct-13 22:01N 01°14' E 103°56'3 5.3
2017-Oct-13 21:30N 01°15' E 103°58'4 6.1
2017-Oct-13 20:52N 01°16' E 104°02'  
Track history (hours):
 
Tides and Currents Weather Stations Pressure Air Temp Water Temp Dewpoint Dewpoint Depression Visibility Wind Speed Wind Dir Waves Ship Positions

MSC Alexa

Last reported at 2017-Oct-21 17:27 UTC. Time now 2017-Oct-23 00:54 UTC.
Position N 01°14' E 103°57'.

Length 243 m; draft 8.3 m.

Type: Cargo ship. MMSI: 356904000.

Date/timePositionNaut miles runAvg speedWind from/ knotsBaromVisibWave heightAir tempDewpointWater temp
2017-Oct-21 17:27N 01°14' E 103°57'613.9
2017-Oct-21 17:01N 01°12' E 103°51'4 7.3
2017-Oct-21 16:30N 01°13' E 103°48'3 6.5
2017-Oct-21 16:01N 01°16' E 103°46'0 0.2
2017-Oct-21 15:14N 01°16' E 103°46'0 0.0
2017-Oct-21 14:59N 01°16' E 103°46'0 0.0
2017-Oct-21 13:58N 01°16' E 103°46'0 0.0
2017-Oct-21 13:25N 01°16' E 103°46'0 0.0
2017-Oct-21 12:58N 01°16' E 103°46'0 0.0
2017-Oct-21 12:28N 01°16' E 103°46'0 0.0
2017-Oct-21 11:54N 01°16' E 103°46'0 0.0
2017-Oct-21 11:30N 01°16' E 103°46'0 0.0
2017-Oct-21 11:00N 01°16' E 103°46'0 0.0
2017-Oct-21 10:30N 01°16' E 103°46'0 0.0
2017-Oct-21 10:00N 01°16' E 103°46'0 0.0
2017-Oct-21 09:29N 01°16' E 103°46'0 0.0
2017-Oct-21 08:59N 01°16' E 103°46'0 0.0
2017-Oct-21 08:29N 01°16' E 103°46'0 0.0
2017-Oct-21 07:59N 01°16' E 103°46'0 0.0
2017-Oct-21 07:29N 01°16' E 103°46'0 0.0
2017-Oct-21 06:58N 01°16' E 103°46'0 0.0
2017-Oct-21 06:25N 01°16' E 103°46'0 0.0
2017-Oct-21 05:58N 01°16' E 103°46'0 0.0
2017-Oct-21 05:28N 01°16' E 103°46'0 0.0
2017-Oct-21 04:52N 01°16' E 103°46'0 1.0
2017-Oct-21 04:30N 01°16' E 103°46'1 1.3
2017-Oct-21 03:59N 01°15' E 103°46'4 7.7
2017-Oct-21 03:30N 01°14' E 103°43'611.3
2017-Oct-21 03:01N 01°12' E 103°37'3 5.8
2017-Oct-21 02:30N 01°11' E 103°34'3 3.4
2017-Oct-21 01:44N 01°11' E 103°32'0 0.3
2017-Oct-21 01:30N 01°11' E 103°32'0 0.1
2017-Oct-21 00:58N 01°11' E 103°32'0 0.3
2017-Oct-21 00:30N 01°10' E 103°32'0 0.6
2017-Oct-20 23:59N 01°10' E 103°32'2 4.7
2017-Oct-20 23:27N 01°12' E 103°30'1 2.9
2017-Oct-20 22:59N 01°12' E 103°28'0 1.0
2017-Oct-20 22:30N 01°12' E 103°29'0 0.9
2017-Oct-20 21:59N 01°12' E 103°29'0 0.9
2017-Oct-20 21:30N 01°11' E 103°30'0 0.8
2017-Oct-20 20:59N 01°11' E 103°30'0 0.7
2017-Oct-20 20:30N 01°11' E 103°30'3 4.7
2017-Oct-20 19:57N 01°13' E 103°32'510.0
2017-Oct-20 19:30N 01°18' E 103°33'3 5.3
2017-Oct-20 19:01N 01°20' E 103°33'0 0.0
2017-Oct-20 18:19N 01°20' E 103°33'0 0.0
2017-Oct-20 17:55N 01°20' E 103°33'0 0.0
2017-Oct-20 16:52N 01°20' E 103°33'0 0.0
2017-Oct-20 14:57N 01°20' E 103°33'0 0.0
2017-Oct-20 13:59N 01°20' E 103°33'0 0.0
2017-Oct-20 13:26N 01°20' E 103°33'0 0.0
2017-Oct-20 12:47N 01°20' E 103°33'0 0.0
2017-Oct-20 12:29N 01°20' E 103°33'0 0.0
2017-Oct-20 11:59N 01°20' E 103°33'0 0.0
2017-Oct-20 11:16N 01°20' E 103°33'0 0.0
2017-Oct-20 10:58N 01°20' E 103°33'0 0.0
2017-Oct-20 10:28N 01°20' E 103°33'0 0.0
2017-Oct-20 09:58N 01°20' E 103°33'0 0.0
2017-Oct-20 09:27N 01°20' E 103°33'0 0.0
2017-Oct-20 08:54N 01°20' E 103°33'0 0.6
2017-Oct-20 08:30N 01°20' E 103°33'4 8.5
2017-Oct-20 08:00N 01°16' E 103°33'4 7.8
2017-Oct-20 07:30N 01°12' E 103°34'510.1
2017-Oct-20 07:01N 01°11' E 103°39'5 9.8
2017-Oct-20 06:30N 01°09' E 103°44'5 9.2
2017-Oct-20 05:59N 01°10' E 103°48'5 9.8
2017-Oct-20 05:30N 01°12' E 103°52'510.4
2017-Oct-20 05:00N 01°14' E 103°57'  
2017-Oct-14 16:37N 01°15' E 104°05'215.8
2017-Oct-14 16:27N 01°15' E 104°02'716.1
2017-Oct-14 16:00N 01°13' E 103°55'713.5
2017-Oct-14 15:31N 01°12' E 103°49'5 8.6
2017-Oct-14 14:57N 01°16' E 103°46'0 0.1
2017-Oct-14 14:30N 01°16' E 103°46'0 0.0
2017-Oct-14 13:47N 01°16' E 103°46'0 0.0
2017-Oct-14 13:29N 01°16' E 103°46'0 0.0
2017-Oct-14 12:44N 01°16' E 103°46'0 0.0
2017-Oct-14 12:26N 01°16' E 103°46'0 0.0
2017-Oct-14 11:59N 01°16' E 103°46'0 0.0
2017-Oct-14 11:28N 01°16' E 103°46'0 0.0
2017-Oct-14 10:58N 01°16' E 103°46'3 5.5
2017-Oct-14 10:27N 01°14' E 103°47'3 4.3
2017-Oct-14 09:46N 01°16' E 103°46'519.4
2017-Oct-14 09:29N 01°12' E 103°50'2 3.0
2017-Oct-14 08:58N 01°12' E 103°51'1 2.7
2017-Oct-14 08:30N 01°13' E 103°53'1 1.8
2017-Oct-14 07:58N 01°13' E 103°53'817.1
2017-Oct-14 07:30N 01°16' E 103°46'0 0.0
2017-Oct-14 06:59N 01°16' E 103°46'0 0.0
2017-Oct-14 06:29N 01°16' E 103°46'0 0.0
2017-Oct-14 05:59N 01°16' E 103°46'0 0.0
2017-Oct-14 05:29N 01°16' E 103°46'0 0.0
2017-Oct-14 04:59N 01°16' E 103°46'0 0.0
2017-Oct-14 04:28N 01°16' E 103°46'0 0.0
2017-Oct-14 03:58N 01°16' E 103°46'0 0.0
2017-Oct-14 03:28N 01°16' E 103°46'0 0.0
2017-Oct-14 02:58N 01°16' E 103°46'0 0.0
2017-Oct-14 02:31N 01°16' E 103°46'0 0.0
2017-Oct-14 02:00N 01°16' E 103°46'0 0.0
2017-Oct-14 01:30N 01°16' E 103°46'0 0.0
2017-Oct-14 00:57N 01°16' E 103°46'0 0.0
2017-Oct-14 00:24N 01°16' E 103°46'0 0.3
2017-Oct-14 00:00N 01°16' E 103°46'3 5.6
2017-Oct-13 23:31N 01°14' E 103°47'612.1
2017-Oct-13 23:00N 01°13' E 103°53'2 4.0
2017-Oct-13 22:31N 01°14' E 103°55'1 1.6
2017-Oct-13 22:01N 01°14' E 103°56'3 5.3
2017-Oct-13 21:30N 01°15' E 103°58'4 6.1
2017-Oct-13 20:52N 01°16' E 104°02'  

Dump ship's entire track history